createdAt,value
2022-12-03T00:01:45.143Z,26.99
2022-12-03T00:04:16.214Z,27.28
2022-12-03T00:06:47.731Z,25.96
2022-12-03T00:09:18.652Z,25.33
2022-12-03T00:11:50.052Z,24.72
2022-12-03T00:14:21.009Z,24.73
2022-12-03T00:16:51.897Z,24.36
2022-12-03T00:19:23.237Z,24.15
2022-12-03T00:21:54.216Z,24.62
2022-12-03T00:24:24.964Z,25.11
2022-12-03T00:26:55.728Z,24.54
2022-12-03T00:29:26.563Z,24.07
2022-12-03T00:31:57.858Z,23.93
2022-12-03T00:34:28.582Z,25.56
2022-12-03T00:36:59.785Z,25.71
2022-12-03T00:39:31.046Z,25.30
2022-12-03T00:42:02.008Z,24.00
2022-12-03T00:44:32.930Z,24.36
2022-12-03T00:47:03.953Z,24.21
2022-12-03T00:49:35.110Z,23.86
2022-12-03T00:52:06.431Z,23.93
2022-12-03T00:54:37.501Z,24.11
2022-12-03T00:57:08.696Z,23.71
2022-12-03T00:59:39.859Z,23.48
2022-12-03T01:02:11.088Z,24.00
2022-12-03T01:04:42.029Z,23.39
2022-12-03T01:07:12.858Z,23.37
2022-12-03T01:09:43.887Z,23.75
2022-12-03T01:12:14.696Z,24.73
2022-12-03T01:14:45.427Z,24.61
2022-12-03T01:17:16.517Z,25.76
2022-12-03T01:19:48.567Z,26.20
2022-12-03T01:22:19.544Z,26.67
2022-12-03T01:24:50.696Z,26.49
2022-12-03T01:27:22.089Z,25.85
2022-12-03T01:29:53.015Z,26.71
2022-12-03T01:32:23.680Z,26.71
2022-12-03T01:34:58.140Z,27.39
2022-12-03T01:37:29.685Z,27.31
2022-12-03T01:40:00.927Z,26.76
2022-12-03T01:42:39.081Z,25.24
2022-12-03T01:45:16.884Z,25.24
2022-12-03T01:48:02.207Z,25.15
2022-12-03T01:50:34.796Z,24.95
2022-12-03T01:53:06.566Z,24.97
2022-12-03T01:55:39.099Z,24.98
2022-12-03T01:58:12.346Z,25.56
2022-12-03T02:00:43.221Z,25.32
2022-12-03T02:03:28.321Z,26.64
2022-12-03T02:05:59.272Z,26.99
2022-12-03T02:08:38.396Z,26.83
2022-12-03T02:11:22.769Z,26.87
2022-12-03T02:14:18.649Z,25.82
2022-12-03T02:17:04.438Z,26.27
2022-12-03T02:19:36.024Z,26.41
2022-12-03T02:22:21.740Z,25.92
2022-12-03T02:25:16.492Z,25.59
2022-12-03T02:27:48.038Z,25.27
2022-12-03T02:30:20.398Z,24.96
2022-12-03T02:32:51.946Z,24.77
2022-12-03T02:35:28.091Z,24.92
2022-12-03T02:38:08.885Z,24.28
2022-12-03T02:40:40.507Z,24.91
2022-12-03T02:43:12.059Z,24.35
2022-12-03T02:45:46.068Z,24.57
2022-12-03T02:48:20.187Z,25.49
2022-12-03T02:51:01.604Z,25.80
2022-12-03T02:53:36.236Z,26.11
2022-12-03T02:56:07.999Z,25.47
2022-12-03T02:58:39.328Z,25.40
2022-12-03T03:01:10.857Z,24.67
2022-12-03T03:03:42.154Z,25.00
2022-12-03T03:06:13.495Z,24.77
2022-12-03T03:08:45.198Z,24.05
2022-12-03T03:11:15.905Z,24.66
2022-12-03T03:13:46.877Z,24.16
2022-12-03T03:16:19.043Z,24.14
2022-12-03T03:18:50.080Z,24.20
2022-12-03T03:21:21.746Z,24.84
2022-12-03T03:23:52.718Z,23.97
2022-12-03T03:26:23.671Z,24.16
2022-12-03T03:28:54.786Z,24.10
2022-12-03T03:31:26.606Z,23.37
2022-12-03T03:33:57.466Z,23.91
2022-12-03T03:36:28.722Z,24.77
2022-12-03T03:38:59.746Z,24.95
2022-12-03T03:41:31.703Z,25.17
2022-12-03T03:44:02.665Z,24.69
2022-12-03T03:46:34.835Z,25.10
2022-12-03T03:49:07.529Z,23.68
2022-12-03T03:51:38.555Z,23.48
2022-12-03T03:54:09.687Z,24.13
2022-12-03T03:56:40.600Z,24.70
2022-12-03T03:59:11.561Z,24.13
2022-12-03T04:01:43.111Z,25.00
2022-12-03T04:04:25.331Z,24.69
2022-12-03T04:06:56.353Z,24.23
2022-12-03T04:09:27.968Z,23.99
2022-12-03T04:12:19.251Z,23.90
2022-12-03T04:14:50.576Z,24.20
2022-12-03T04:17:22.180Z,23.49
2022-12-03T04:19:53.431Z,24.18
2022-12-03T04:22:42.486Z,24.43
2022-12-03T04:25:31.393Z,24.19
2022-12-03T04:28:21.376Z,23.85
2022-12-03T04:30:52.507Z,24.73
2022-12-03T04:33:41.361Z,23.80
2022-12-03T04:36:12.616Z,23.87
2022-12-03T04:38:43.179Z,24.31
2022-12-03T04:41:14.277Z,24.04
2022-12-03T04:44:03.319Z,23.68
2022-12-03T04:46:34.036Z,23.55
2022-12-03T04:49:04.806Z,24.12
2022-12-03T04:51:35.967Z,23.71
2022-12-03T04:54:07.767Z,24.04
2022-12-03T04:56:38.976Z,23.96
2022-12-03T04:59:15.597Z,23.82
2022-12-03T05:01:47.366Z,24.04
2022-12-03T05:04:18.635Z,23.82
2022-12-03T05:06:49.799Z,23.84
2022-12-03T05:09:21.136Z,24.05
2022-12-03T05:11:52.410Z,23.50
2022-12-03T05:14:24.279Z,23.55
2022-12-03T05:16:55.227Z,23.86
2022-12-03T05:19:46.389Z,23.55
2022-12-03T05:22:17.311Z,23.11
2022-12-03T05:24:48.506Z,22.84
2022-12-03T05:27:23.742Z,23.13
2022-12-03T05:29:55.626Z,23.31
2022-12-03T05:32:26.740Z,22.68
2022-12-03T05:34:57.704Z,22.82
2022-12-03T05:37:28.670Z,22.40
2022-12-03T05:39:59.933Z,22.69
2022-12-03T05:42:48.760Z,22.91
2022-12-03T05:45:20.784Z,22.57
2022-12-03T05:47:51.812Z,22.32
2022-12-03T05:50:24.585Z,22.04
2022-12-03T05:52:58.252Z,22.18
2022-12-03T05:55:29.732Z,22.18
2022-12-03T05:58:01.160Z,21.87
2022-12-03T06:00:42.760Z,22.44
2022-12-03T06:03:14.260Z,21.92
2022-12-03T06:05:45.611Z,21.64
2022-12-03T06:08:16.343Z,21.63
2022-12-03T06:10:47.289Z,21.41
2022-12-03T06:13:18.300Z,21.08
2022-12-03T06:15:49.269Z,21.04
2022-12-03T06:18:20.160Z,21.47
2022-12-03T06:20:51.411Z,21.15
2022-12-03T06:23:22.359Z,21.34
2022-12-03T06:25:53.160Z,21.08
2022-12-03T06:28:24.356Z,21.07
2022-12-03T06:30:55.141Z,20.97
2022-12-03T06:33:26.388Z,20.65
2022-12-03T06:35:57.317Z,20.52
2022-12-03T06:38:28.243Z,20.60
2022-12-03T06:40:59.224Z,20.57
2022-12-03T06:43:30.164Z,20.54
2022-12-03T06:46:01.159Z,20.27
2022-12-03T06:48:32.647Z,20.21
2022-12-03T06:51:03.682Z,20.09
2022-12-03T06:53:34.586Z,20.00
2022-12-03T06:59:59.564Z,19.95
2022-12-03T07:02:30.554Z,19.86
2022-12-03T07:05:01.628Z,19.57
2022-12-03T07:07:34.875Z,19.52
2022-12-03T07:10:06.546Z,19.49
2022-12-03T07:12:37.736Z,19.35
2022-12-03T07:15:09.015Z,19.58
2022-12-03T07:17:40.402Z,19.37
2022-12-03T07:20:11.491Z,19.12
2022-12-03T07:22:43.086Z,19.09
2022-12-03T07:25:21.209Z,19.21
2022-12-03T07:27:53.990Z,19.20
2022-12-03T07:30:25.734Z,19.07
2022-12-03T07:32:56.160Z,18.98
2022-12-03T07:35:26.991Z,18.81
2022-12-03T07:37:57.973Z,18.81
2022-12-03T07:40:29.085Z,18.86
2022-12-03T07:43:00.040Z,18.57
2022-12-03T07:45:30.935Z,18.69
2022-12-03T07:48:01.857Z,18.56
2022-12-03T07:50:32.797Z,18.40
2022-12-03T07:53:04.097Z,18.31
2022-12-03T07:55:35.095Z,18.23
2022-12-03T07:58:05.820Z,18.25
2022-12-03T08:00:36.753Z,18.19
2022-12-03T08:03:07.658Z,18.12
2022-12-03T08:05:38.597Z,17.96
2022-12-03T08:08:09.665Z,17.98
2022-12-03T08:10:40.691Z,17.81
2022-12-03T08:13:19.860Z,17.79
2022-12-03T08:19:11.954Z,17.66
2022-12-03T08:21:43.108Z,17.78
2022-12-03T08:24:23.853Z,17.66
2022-12-03T08:26:54.798Z,17.82
2022-12-03T08:29:26.855Z,17.90
2022-12-03T08:31:58.500Z,17.77
2022-12-03T08:34:31.272Z,17.68
2022-12-03T08:37:25.027Z,17.59
2022-12-03T08:39:57.357Z,17.47
2022-12-03T08:42:44.380Z,17.26
2022-12-03T08:45:41.123Z,17.38
2022-12-03T08:48:21.093Z,17.50
2022-12-03T08:50:52.850Z,17.59
2022-12-03T08:53:50.806Z,17.58
2022-12-03T08:56:28.965Z,17.25
2022-12-03T08:59:03.146Z,17.09
2022-12-03T09:01:44.647Z,17.23
2022-12-03T09:04:33.837Z,17.23
2022-12-03T09:07:06.667Z,17.06
2022-12-03T09:09:37.608Z,17.03
2022-12-03T09:12:10.176Z,17.02
2022-12-03T09:14:41.075Z,16.96
2022-12-03T09:17:11.915Z,17.02
2022-12-03T09:19:46.575Z,16.76
2022-12-03T09:22:18.840Z,16.67
2022-12-03T09:24:50.148Z,16.74
2022-12-03T09:27:22.266Z,16.69
2022-12-03T09:29:53.694Z,16.75
2022-12-03T09:32:24.471Z,16.63
2022-12-03T09:34:56.221Z,16.52
2022-12-03T09:37:26.645Z,16.57
2022-12-03T09:39:58.167Z,16.49
2022-12-03T09:42:29.264Z,16.59
2022-12-03T09:45:17.517Z,16.53
2022-12-03T09:47:51.952Z,16.53
2022-12-03T09:50:27.847Z,16.50
2022-12-03T09:53:03.601Z,16.17
2022-12-03T09:55:34.521Z,15.98
2022-12-03T09:58:10.785Z,15.92
2022-12-03T10:00:42.859Z,15.77
2022-12-03T10:03:16.445Z,15.82
2022-12-03T10:05:48.364Z,15.93
2022-12-03T10:08:26.091Z,15.94
2022-12-03T10:11:01.342Z,15.83
2022-12-03T10:13:33.424Z,15.85
2022-12-03T10:16:04.259Z,15.73
2022-12-03T10:18:41.477Z,15.77
2022-12-03T10:21:27.508Z,15.84
2022-12-03T10:24:22.004Z,15.79
2022-12-03T10:26:56.083Z,15.61
2022-12-03T10:29:33.627Z,15.63
2022-12-03T10:32:11.431Z,15.46
2022-12-03T10:34:43.961Z,15.49
2022-12-03T10:37:20.620Z,15.37
2022-12-03T10:40:13.011Z,15.32
2022-12-03T10:42:44.193Z,15.20
2022-12-03T10:45:23.845Z,15.16
2022-12-03T10:48:14.452Z,15.26
2022-12-03T10:50:54.319Z,15.28
2022-12-03T10:53:28.922Z,15.28
2022-12-03T10:56:01.631Z,15.33
2022-12-03T10:58:40.530Z,15.10
2022-12-03T11:01:23.493Z,14.72
2022-12-03T11:03:54.816Z,14.61
2022-12-03T11:06:26.077Z,14.66
2022-12-03T11:09:01.527Z,14.70
2022-12-03T11:11:36.073Z,14.52
2022-12-03T11:14:07.100Z,14.36
2022-12-03T11:16:43.883Z,14.43
2022-12-03T11:19:40.311Z,14.40
2022-12-03T11:22:11.569Z,14.38
2022-12-03T11:24:42.787Z,14.13
2022-12-03T11:27:13.583Z,14.27
2022-12-03T11:29:50.426Z,14.05
2022-12-03T11:33:00.853Z,13.91
2022-12-03T11:36:36.492Z,13.98
2022-12-03T11:39:12.178Z,14.12
2022-12-03T11:42:28.912Z,14.09
2022-12-03T11:45:07.273Z,13.90
2022-12-03T11:47:50.442Z,13.93
2022-12-03T11:50:33.570Z,14.02
2022-12-03T11:53:16.067Z,13.89
2022-12-03T11:55:50.359Z,13.79
2022-12-03T11:58:30.235Z,13.85
2022-12-03T12:01:03.524Z,13.86
2022-12-03T12:03:35.402Z,14.05
2022-12-03T12:06:17.302Z,14.11
2022-12-03T12:08:53.938Z,14.06
2022-12-03T12:11:43.206Z,13.83
2022-12-03T12:14:15.298Z,13.86
2022-12-03T12:16:52.296Z,13.91
2022-12-03T12:19:43.976Z,13.84
2022-12-03T12:22:19.204Z,13.62
2022-12-03T12:24:54.797Z,13.66
2022-12-03T12:27:46.494Z,14.32
2022-12-03T12:30:20.694Z,14.29
2022-12-03T12:32:54.355Z,13.80
2022-12-03T12:35:27.311Z,13.80
2022-12-03T12:38:12.422Z,13.79
2022-12-03T12:41:08.668Z,13.77
2022-12-03T12:43:48.519Z,13.73
2022-12-03T12:46:46.767Z,13.74
2022-12-03T12:49:17.557Z,13.52
2022-12-03T12:51:49.658Z,13.42
2022-12-03T12:54:20.859Z,13.69
2022-12-03T12:56:52.129Z,13.40
2022-12-03T12:59:25.777Z,13.27
2022-12-03T13:01:56.900Z,13.40
2022-12-03T13:04:29.992Z,13.43
2022-12-03T13:07:02.102Z,13.30
2022-12-03T13:09:33.245Z,13.24
2022-12-03T13:12:08.869Z,13.25
2022-12-03T13:14:39.894Z,13.15
2022-12-03T13:17:16.587Z,13.06
2022-12-03T13:19:52.784Z,13.13
2022-12-03T13:22:32.367Z,12.97
2022-12-03T13:25:58.128Z,13.11
2022-12-03T13:28:28.018Z,13.08
2022-12-03T13:31:04.133Z,13.16
2022-12-03T13:33:35.728Z,13.05
2022-12-03T13:36:07.823Z,12.84
2022-12-03T13:38:38.667Z,12.68
2022-12-03T13:41:35.424Z,12.70
2022-12-03T13:44:18.185Z,12.59
2022-12-03T13:46:49.531Z,12.56
2022-12-03T13:49:25.134Z,12.59
2022-12-03T13:51:55.842Z,12.49
2022-12-03T13:54:29.604Z,12.46
2022-12-03T13:57:01.691Z,12.42
2022-12-03T13:59:32.596Z,12.40
2022-12-03T14:02:03.597Z,12.35
2022-12-03T14:04:34.581Z,12.38
2022-12-03T14:07:05.281Z,12.24
2022-12-03T14:09:36.099Z,12.24
2022-12-03T14:12:25.274Z,12.22
2022-12-03T14:15:08.624Z,12.02
2022-12-03T14:17:41.899Z,12.24
2022-12-03T14:20:16.004Z,12.26
2022-12-03T14:22:49.402Z,12.31
2022-12-03T14:25:31.373Z,12.12
2022-12-03T14:28:16.661Z,12.12
2022-12-03T14:30:56.985Z,12.24
2022-12-03T14:33:33.726Z,11.99
2022-12-03T14:36:04.789Z,11.97
2022-12-03T14:38:36.166Z,11.93
2022-12-03T14:41:36.002Z,11.91
2022-12-03T14:44:06.975Z,11.89
2022-12-03T14:46:37.697Z,11.99
2022-12-03T14:49:18.147Z,12.13
2022-12-03T14:51:52.406Z,12.12
2022-12-03T14:54:31.812Z,12.10
2022-12-03T14:57:05.283Z,12.03
2022-12-03T14:59:36.253Z,12.06
2022-12-03T15:02:09.972Z,12.07
2022-12-03T15:04:41.847Z,12.13
2022-12-03T15:07:12.321Z,12.14
2022-12-03T15:09:43.255Z,12.14
2022-12-03T15:12:14.250Z,12.15
2022-12-03T15:14:56.659Z,12.18
2022-12-03T15:17:40.268Z,12.16
2022-12-03T15:20:11.711Z,12.05
2022-12-03T15:22:42.928Z,12.13
2022-12-03T15:25:14.282Z,11.80
2022-12-03T15:27:48.404Z,11.55
2022-12-03T15:30:22.215Z,11.53
2022-12-03T15:35:45.719Z,11.54
2022-12-03T15:38:17.838Z,11.50
2022-12-03T15:40:49.199Z,11.46
2022-12-03T15:43:20.207Z,11.33
2022-12-03T15:45:51.105Z,11.56
2022-12-03T15:48:21.983Z,11.65
2022-12-03T15:50:52.671Z,11.62
2022-12-03T15:53:23.360Z,11.46
2022-12-03T15:55:54.218Z,11.53
2022-12-03T15:58:24.912Z,11.75
2022-12-03T16:00:55.613Z,11.46
2022-12-03T16:03:43.622Z,11.41
2022-12-03T16:06:44.438Z,11.30
2022-12-03T16:09:41.869Z,11.28
2022-12-03T16:12:15.105Z,11.45
2022-12-03T16:14:46.005Z,11.48
2022-12-03T16:17:22.035Z,11.36
2022-12-03T16:20:17.840Z,11.36
2022-12-03T16:23:36.740Z,11.18
2022-12-03T16:26:11.460Z,11.25
2022-12-03T16:28:44.588Z,11.33
2022-12-03T16:31:20.459Z,11.25
2022-12-03T16:33:54.128Z,11.20
2022-12-03T16:36:37.857Z,11.12
2022-12-03T16:39:37.380Z,10.99
2022-12-03T16:42:17.246Z,10.95
2022-12-03T16:45:13.515Z,11.06
2022-12-03T16:48:01.502Z,11.17
2022-12-03T16:50:32.537Z,10.94
2022-12-03T16:53:03.490Z,10.87
2022-12-03T16:55:34.379Z,10.99
2022-12-03T16:58:05.031Z,10.87
2022-12-03T17:00:36.147Z,10.89
2022-12-03T17:03:06.936Z,11.04
2022-12-03T17:05:38.144Z,11.20
2022-12-03T17:08:09.127Z,11.31
2022-12-03T17:10:40.474Z,11.19
2022-12-03T17:13:11.695Z,11.21
2022-12-03T17:15:42.873Z,11.17
2022-12-03T17:18:14.132Z,11.15
2022-12-03T17:20:45.067Z,11.20
2022-12-03T17:23:15.929Z,11.30
2022-12-03T17:25:47.158Z,11.39
2022-12-03T17:28:19.436Z,11.50
2022-12-03T17:30:50.156Z,11.68
2022-12-03T17:33:21.055Z,11.69
2022-12-03T17:35:52.367Z,11.89
2022-12-03T17:38:23.255Z,12.02
2022-12-03T17:40:54.096Z,12.17
2022-12-03T17:43:25.030Z,12.31
2022-12-03T17:45:57.452Z,12.39
2022-12-03T17:48:32.672Z,12.66
2022-12-03T17:51:03.785Z,12.78
2022-12-03T17:53:34.651Z,12.87
2022-12-03T17:56:05.483Z,13.03
2022-12-03T17:58:36.252Z,13.18
2022-12-03T18:01:10.006Z,13.40
2022-12-03T18:03:40.786Z,13.74
2022-12-03T18:06:11.696Z,13.79
2022-12-03T18:08:42.504Z,13.97
2022-12-03T18:11:13.521Z,14.20
2022-12-03T18:13:44.337Z,14.22
2022-12-03T18:16:16.156Z,14.54
2022-12-03T18:18:47.674Z,14.73
2022-12-03T18:21:20.032Z,14.79
2022-12-03T18:23:50.828Z,15.04
2022-12-03T18:26:21.717Z,15.26
2022-12-03T18:28:52.552Z,15.40
2022-12-03T18:31:24.828Z,15.41
2022-12-03T18:33:55.803Z,15.53
2022-12-03T18:36:31.439Z,15.60
2022-12-03T18:39:02.901Z,15.84
2022-12-03T18:41:35.582Z,15.74
2022-12-03T18:44:11.659Z,16.12
2022-12-03T18:46:53.398Z,16.37
2022-12-03T18:49:25.066Z,16.54
2022-12-03T18:51:59.290Z,16.75
2022-12-03T18:54:30.584Z,16.95
2022-12-03T18:57:01.571Z,17.12
2022-12-03T18:59:32.490Z,17.19
2022-12-03T19:02:03.494Z,17.24
2022-12-03T19:04:34.427Z,17.26
2022-12-03T19:07:05.215Z,17.48
2022-12-03T19:09:36.239Z,17.52
2022-12-03T19:12:12.846Z,17.73
2022-12-03T19:14:45.634Z,17.92
2022-12-03T19:17:16.556Z,18.40
2022-12-03T19:19:47.981Z,18.30
2022-12-03T19:22:18.661Z,18.36
2022-12-03T19:24:49.748Z,18.05
2022-12-03T19:27:21.126Z,18.02
2022-12-03T19:29:52.702Z,18.22
2022-12-03T19:32:23.781Z,18.74
2022-12-03T19:34:55.266Z,18.89
2022-12-03T19:37:26.709Z,18.82
2022-12-03T19:39:57.825Z,18.70
2022-12-03T19:42:29.057Z,19.01
2022-12-03T19:44:59.830Z,18.97
2022-12-03T19:47:30.580Z,19.10
2022-12-03T19:50:01.652Z,19.31
2022-12-03T19:52:33.439Z,19.41
2022-12-03T19:55:04.231Z,19.67
2022-12-03T19:57:37.316Z,19.34
2022-12-03T20:00:09.070Z,19.56
2022-12-03T20:02:42.626Z,19.78
2022-12-03T20:05:13.818Z,19.83
2022-12-03T20:07:44.847Z,20.40
2022-12-03T20:10:21.103Z,20.14
2022-12-03T20:12:51.758Z,20.11
2022-12-03T20:15:22.539Z,19.98
2022-12-03T20:17:53.435Z,20.96
2022-12-03T20:20:24.621Z,20.99
2022-12-03T20:22:55.547Z,21.23
2022-12-03T20:25:26.479Z,21.27
2022-12-03T20:27:57.213Z,21.45
2022-12-03T20:30:28.313Z,21.75
2022-12-03T20:32:59.067Z,21.55
2022-12-03T20:35:31.591Z,21.45
2022-12-03T20:38:02.819Z,21.80
2022-12-03T20:40:37.170Z,22.39
2022-12-03T20:43:08.095Z,22.22
2022-12-03T20:45:39.026Z,22.10
2022-12-03T20:48:10.173Z,22.03
2022-12-03T20:50:41.469Z,21.98
2022-12-03T20:53:25.788Z,21.98
2022-12-03T20:56:01.579Z,22.59
2022-12-03T20:58:33.316Z,23.13
2022-12-03T21:01:16.173Z,22.43
2022-12-03T21:03:48.249Z,22.01
2022-12-03T21:06:19.905Z,22.68
2022-12-03T21:08:50.464Z,23.33
2022-12-03T21:11:25.431Z,23.75
2022-12-03T21:13:56.733Z,23.66
2022-12-03T21:16:59.389Z,23.25
2022-12-03T21:19:22.301Z,23.72
2022-12-03T21:21:53.161Z,24.01
2022-12-03T21:24:23.903Z,23.56
2022-12-03T21:26:54.912Z,24.31
2022-12-03T21:29:26.363Z,24.23
2022-12-03T21:31:57.193Z,24.06
2022-12-03T21:34:34.219Z,24.08
2022-12-03T21:37:07.083Z,24.29
2022-12-03T21:39:38.978Z,23.83
2022-12-03T21:42:19.409Z,23.93
2022-12-03T21:45:00.921Z,24.62
2022-12-03T21:47:37.163Z,23.51
2022-12-03T21:50:09.986Z,23.91
2022-12-03T21:52:40.997Z,24.19
2022-12-03T21:55:12.351Z,24.37
2022-12-03T21:57:43.104Z,24.10
2022-12-03T22:00:14.963Z,24.88
2022-12-03T22:02:45.908Z,23.53
2022-12-03T22:05:16.814Z,23.18
2022-12-03T22:07:47.735Z,24.59
2022-12-03T22:10:18.798Z,24.22
2022-12-03T22:12:49.728Z,24.01
2022-12-03T22:15:20.776Z,24.96
2022-12-03T22:17:51.754Z,25.36
2022-12-03T22:20:22.769Z,25.60
2022-12-03T22:22:53.739Z,25.64
2022-12-03T22:25:24.700Z,25.42
2022-12-03T22:27:55.777Z,24.73
2022-12-03T22:30:27.123Z,25.69
2022-12-03T22:32:57.942Z,25.18
2022-12-03T22:35:28.901Z,25.59
2022-12-03T22:37:59.868Z,25.89
2022-12-03T22:40:30.714Z,26.01
2022-12-03T22:43:01.400Z,24.98
2022-12-03T22:45:32.148Z,26.14
2022-12-03T22:48:03.106Z,25.70
2022-12-03T22:50:34.089Z,27.00
2022-12-03T22:53:05.181Z,25.77
2022-12-03T22:55:35.945Z,26.33
2022-12-03T22:58:07.547Z,25.17
2022-12-03T23:00:38.769Z,25.81
2022-12-03T23:03:10.355Z,26.08
2022-12-03T23:05:41.794Z,25.74
2022-12-03T23:08:19.319Z,25.63
2022-12-03T23:10:52.762Z,26.37
2022-12-03T23:13:23.806Z,26.77
2022-12-03T23:15:54.851Z,25.76
2022-12-03T23:18:26.389Z,25.28
2022-12-03T23:20:58.869Z,25.33
2022-12-03T23:23:30.303Z,25.87
2022-12-03T23:26:09.273Z,25.13
2022-12-03T23:28:42.537Z,25.84
2022-12-03T23:31:28.501Z,25.82
2022-12-03T23:34:00.650Z,26.43
2022-12-03T23:36:33.756Z,26.75
2022-12-03T23:39:04.964Z,26.29
2022-12-03T23:41:37.550Z,26.37
2022-12-03T23:44:08.681Z,26.14
2022-12-03T23:46:41.951Z,26.12
2022-12-03T23:49:12.815Z,25.69
2022-12-03T23:51:43.728Z,26.45
2022-12-03T23:54:14.517Z,25.68
2022-12-03T23:56:45.450Z,25.50
2022-12-03T23:59:16.201Z,25.66
